Time;durP1;ratioP1;P1;durP2;ratioP2;P2;SDS_P1;SDS_P2;PMS_P1;PMS_P2;Temp;Humidity;BMP_temperature;BMP_pressure;BME280_temperature;BME280_humidity;BME280_pressure;Samples;Min_cycle;Max_cycle;Signal;HPM_P1;HPM_P2
2022/07/10 00:00:53;;;;;;;;;;;23.20;57.80;;;;;;5019127;28;19933;-73
2022/07/10 00:03:19;;;;;;;;;;;23.20;57.80;;;;;;5020956;28;19929;-73
2022/07/10 00:05:46;;;;;;;;;;;23.20;58.00;;;;;;5021760;28;19940;-72
2022/07/10 00:08:14;;;;;;;;;;;23.10;58.00;;;;;;5024916;28;19933;-73
2022/07/10 00:10:40;;;;;;;;;;;23.10;58.10;;;;;;5021394;28;19929;-73
2022/07/10 00:13:07;;;;;;;;;;;23.10;58.10;;;;;;5020055;28;19933;-73
2022/07/10 00:15:34;;;;;;;;;;;23.00;58.20;;;;;;5014768;28;19933;-73
2022/07/10 00:18:00;;;;;;;;;;;23.00;58.30;;;;;;5021274;28;19930;-73
2022/07/10 00:20:27;;;;;;;;;;;23.00;58.40;;;;;;5020464;28;19933;-73
2022/07/10 00:22:53;;;;;;;;;;;23.00;58.50;;;;;;5019090;28;19936;-73
2022/07/10 00:25:21;;;;;;;;;;;22.90;58.50;;;;;;5021837;28;20467;-73
2022/07/10 00:27:48;;;;;;;;;;;22.90;58.60;;;;;;5021941;28;19972;-72
2022/07/10 00:30:15;;;;;;;;;;;22.90;58.70;;;;;;5016421;28;19929;-73
2022/07/10 00:32:41;;;;;;;;;;;22.90;58.80;;;;;;5023865;28;19936;-73
2022/07/10 00:35:08;;;;;;;;;;;22.80;58.80;;;;;;5020595;28;19936;-73
2022/07/10 00:37:36;;;;;;;;;;;22.80;59.40;;;;;;5021561;28;19929;-73
2022/07/10 00:40:04;;;;;;;;;;;22.80;59.00;;;;;;5022317;28;20278;-73
2022/07/10 00:42:32;;;;;;;;;;;22.70;58.90;;;;;;5018204;28;19944;-72
2022/07/10 00:44:58;;;;;;;;;;;22.70;59.00;;;;;;5020007;28;19929;-73
2022/07/10 00:47:25;;;;;;;;;;;22.70;59.00;;;;;;5019492;28;19929;-73
2022/07/10 00:49:51;;;;;;;;;;;22.60;59.10;;;;;;5022410;28;19936;-73
2022/07/10 00:52:19;;;;;;;;;;;22.60;59.10;;;;;;5023736;28;19939;-72
2022/07/10 00:54:46;;;;;;;;;;;22.60;59.20;;;;;;5027996;28;19929;-73
2022/07/10 00:57:14;;;;;;;;;;;22.50;59.20;;;;;;5027736;28;19929;-73
2022/07/10 00:59:42;;;;;;;;;;;22.60;59.30;;;;;;5024188;28;19956;-73
2022/07/10 01:02:08;;;;;;;;;;;22.50;59.40;;;;;;5027081;28;20020;-73
2022/07/10 01:04:35;;;;;;;;;;;22.50;59.50;;;;;;5028870;28;19932;-73
2022/07/10 01:07:02;;;;;;;;;;;22.50;59.60;;;;;;5023696;28;19929;-73
2022/07/10 01:09:29;;;;;;;;;;;22.40;59.50;;;;;;5025454;28;19933;-73
2022/07/10 01:11:56;;;;;;;;;;;22.40;59.50;;;;;;5023790;28;19971;-73
2022/07/10 01:14:22;;;;;;;;;;;22.40;59.60;;;;;;5024823;28;19933;-73
2022/07/10 01:16:50;;;;;;;;;;;22.30;59.50;;;;;;5023238;28;19929;-73
2022/07/10 01:19:17;;;;;;;;;;;22.30;59.50;;;;;;5026474;28;19940;-73
2022/07/10 01:21:45;;;;;;;;;;;22.30;59.70;;;;;;5024830;28;19929;-73
2022/07/10 01:24:12;;;;;;;;;;;22.30;59.90;;;;;;5028908;28;19936;-73
2022/07/10 01:26:42;;;;;;;;;;;22.30;59.80;;;;;;5027614;28;20403;-73
2022/07/10 01:29:08;;;;;;;;;;;22.20;59.70;;;;;;5025951;28;19940;-73
2022/07/10 01:31:35;;;;;;;;;;;22.20;59.70;;;;;;5025418;28;19933;-73
2022/07/10 01:34:03;;;;;;;;;;;22.10;59.80;;;;;;5025408;28;19936;-72
2022/07/10 01:36:30;;;;;;;;;;;22.10;59.90;;;;;;5025888;28;19936;-72
2022/07/10 01:38:59;;;;;;;;;;;22.10;60.00;;;;;;5023554;28;20022;-73
2022/07/10 01:41:26;;;;;;;;;;;22.00;59.90;;;;;;5024843;28;19937;-73
2022/07/10 01:43:53;;;;;;;;;;;22.10;60.10;;;;;;5024357;28;19936;-73
2022/07/10 01:46:19;;;;;;;;;;;22.00;60.10;;;;;;5022252;28;19940;-73
2022/07/10 01:48:46;;;;;;;;;;;22.00;60.10;;;;;;5025288;28;19929;-73
2022/07/10 01:51:13;;;;;;;;;;;21.90;60.00;;;;;;5023414;28;19951;-73
2022/07/10 01:53:39;;;;;;;;;;;21.90;60.10;;;;;;5024605;28;20347;-73
2022/07/10 01:56:08;;;;;;;;;;;21.90;60.10;;;;;;5032329;28;19951;-73
2022/07/10 01:58:35;;;;;;;;;;;21.90;60.30;;;;;;5023785;28;19929;-73
2022/07/10 02:01:02;;;;;;;;;;;21.80;60.40;;;;;;5022730;28;19977;-72
2022/07/10 02:06:13;;;;;;;;;;;21.80;60.40;;;;;;5021013;28;19987;-73
2022/07/10 02:08:39;;;;;;;;;;;21.70;60.30;;;;;;5022921;28;19929;-73
2022/07/10 02:11:07;;;;;;;;;;;21.70;60.40;;;;;;5024178;28;19929;-73
2022/07/10 02:13:34;;;;;;;;;;;21.70;60.40;;;;;;5021968;28;19936;-73
2022/07/10 02:16:01;;;;;;;;;;;21.60;60.30;;;;;;5018972;28;19929;-73
2022/07/10 02:18:27;;;;;;;;;;;21.60;60.40;;;;;;5023654;28;19935;-73
2022/07/10 02:20:54;;;;;;;;;;;21.60;60.50;;;;;;5023626;28;19935;-73
2022/07/10 02:23:20;;;;;;;;;;;21.60;60.50;;;;;;5022517;28;19952;-73
2022/07/10 02:25:47;;;;;;;;;;;21.50;60.80;;;;;;5024303;28;19929;-73
2022/07/10 02:28:15;;;;;;;;;;;21.50;60.70;;;;;;5023592;28;19933;-73
2022/07/10 02:30:42;;;;;;;;;;;21.50;60.70;;;;;;5021466;28;19929;-73
2022/07/10 02:33:09;;;;;;;;;;;21.40;60.70;;;;;;5023883;28;20654;-72
2022/07/10 02:35:36;;;;;;;;;;;21.40;60.80;;;;;;5025251;28;19936;-73
2022/07/10 02:38:02;;;;;;;;;;;21.40;60.80;;;;;;5020841;28;19929;-73
2022/07/10 02:40:29;;;;;;;;;;;21.30;60.80;;;;;;5024978;28;20320;-73
2022/07/10 02:42:55;;;;;;;;;;;21.30;60.90;;;;;;5023078;28;19941;-73
2022/07/10 02:45:23;;;;;;;;;;;21.30;61.00;;;;;;5022259;28;20309;-72
2022/07/10 02:47:50;;;;;;;;;;;21.30;61.00;;;;;;5021942;28;19936;-73
2022/07/10 02:50:16;;;;;;;;;;;21.30;61.00;;;;;;5022805;28;20587;-73
2022/07/10 02:52:43;;;;;;;;;;;21.20;61.00;;;;;;5022211;28;19933;-73
2022/07/10 02:55:10;;;;;;;;;;;21.20;61.00;;;;;;5021992;28;20647;-73
2022/07/10 02:57:36;;;;;;;;;;;21.20;61.00;;;;;;5022714;28;19936;-73
2022/07/10 03:00:03;;;;;;;;;;;21.20;61.20;;;;;;5020680;28;20244;-73
2022/07/10 03:02:32;;;;;;;;;;;21.20;61.20;;;;;;5022977;28;19983;-73
2022/07/10 03:04:58;;;;;;;;;;;21.10;61.10;;;;;;5019999;28;19977;-73
2022/07/10 03:07:25;;;;;;;;;;;21.10;61.10;;;;;;5022615;28;20648;-73
2022/07/10 03:09:51;;;;;;;;;;;21.00;61.20;;;;;;5020828;28;19929;-73
2022/07/10 03:12:18;;;;;;;;;;;21.10;61.40;;;;;;5021261;28;19933;-73
2022/07/10 03:14:45;;;;;;;;;;;21.00;62.00;;;;;;5021919;28;19929;-73
2022/07/10 03:17:11;;;;;;;;;;;21.00;61.40;;;;;;5019799;28;20396;-73
2022/07/10 03:19:39;;;;;;;;;;;20.90;61.40;;;;;;5021829;28;19933;-72
2022/07/10 03:22:06;;;;;;;;;;;20.90;61.30;;;;;;5019780;28;19929;-72
2022/07/10 03:24:32;;;;;;;;;;;20.90;61.30;;;;;;5017785;28;20596;-73
2022/07/10 03:26:59;;;;;;;;;;;20.90;61.40;;;;;;5021630;28;19933;-72
2022/07/10 03:29:25;;;;;;;;;;;20.80;61.40;;;;;;5021800;28;20289;-72
2022/07/10 03:31:52;;;;;;;;;;;20.80;61.50;;;;;;5018386;28;19988;-73
2022/07/10 03:34:19;;;;;;;;;;;20.80;61.40;;;;;;5025730;28;19933;-73
2022/07/10 03:36:47;;;;;;;;;;;20.80;61.50;;;;;;5020985;28;19936;-72
2022/07/10 03:39:13;;;;;;;;;;;20.80;61.50;;;;;;5020287;28;19929;-72
2022/07/10 03:41:40;;;;;;;;;;;20.70;61.50;;;;;;5022668;28;19929;-73
2022/07/10 03:44:07;;;;;;;;;;;20.70;61.40;;;;;;5024444;28;19940;-73
2022/07/10 03:46:33;;;;;;;;;;;20.60;61.40;;;;;;5018069;28;20308;-73
2022/07/10 03:49:00;;;;;;;;;;;20.60;61.50;;;;;;5020425;28;19929;-73
2022/07/10 03:51:26;;;;;;;;;;;20.60;61.50;;;;;;5019821;28;19929;-73
2022/07/10 03:53:54;;;;;;;;;;;20.60;61.70;;;;;;5021832;28;20028;-73
2022/07/10 03:59:05;;;;;;;;;;;20.50;61.70;;;;;;5019352;28;19935;-72
2022/07/10 04:01:32;;;;;;;;;;;20.50;61.70;;;;;;5020470;28;19941;-73
2022/07/10 04:03:58;;;;;;;;;;;20.50;61.70;;;;;;5019752;28;19937;-73
2022/07/10 04:06:25;;;;;;;;;;;20.40;61.60;;;;;;5020700;28;19932;-73
2022/07/10 04:08:51;;;;;;;;;;;20.40;61.70;;;;;;5018242;28;20431;-73
2022/07/10 04:11:19;;;;;;;;;;;20.40;61.80;;;;;;5020221;28;19929;-73
2022/07/10 04:13:46;;;;;;;;;;;20.40;61.80;;;;;;5020932;28;20325;-73
2022/07/10 04:16:13;;;;;;;;;;;20.30;61.80;;;;;;5021713;28;19936;-73
2022/07/10 04:18:40;;;;;;;;;;;20.30;61.80;;;;;;5018916;28;19933;-73
2022/07/10 04:21:07;;;;;;;;;;;20.30;61.90;;;;;;5018825;28;19936;-72
2022/07/10 04:23:33;;;;;;;;;;;20.30;62.00;;;;;;5021025;28;19933;-72
2022/07/10 04:26:00;;;;;;;;;;;20.20;61.70;;;;;;5021368;28;19939;-73
2022/07/10 04:28:28;;;;;;;;;;;20.20;61.70;;;;;;5022400;28;19929;-73
2022/07/10 04:30:55;;;;;;;;;;;20.20;61.70;;;;;;5018567;28;19936;-73
2022/07/10 04:33:21;;;;;;;;;;;20.20;62.60;;;;;;5019894;28;19930;-73
2022/07/10 04:35:48;;;;;;;;;;;20.10;61.70;;;;;;5018433;28;19937;-73
2022/07/10 04:38:14;;;;;;;;;;;20.10;61.70;;;;;;5019295;28;20162;-73
2022/07/10 04:40:41;;;;;;;;;;;20.10;61.80;;;;;;5022260;28;19929;-73
2022/07/10 04:43:09;;;;;;;;;;;20.10;61.80;;;;;;5018485;28;19941;-73
2022/07/10 04:45:38;;;;;;;;;;;20.00;61.70;;;;;;5019046;28;19932;-72
2022/07/10 04:48:05;;;;;;;;;;;20.00;61.60;;;;;;5021420;28;19941;-73
2022/07/10 04:50:32;;;;;;;;;;;20.00;61.60;;;;;;5021058;28;19987;-73
2022/07/10 04:52:58;;;;;;;;;;;20.00;61.60;;;;;;5023966;28;19940;-73
2022/07/10 04:55:25;;;;;;;;;;;20.00;61.70;;;;;;5019400;28;20372;-73
2022/07/10 04:57:51;;;;;;;;;;;19.90;61.70;;;;;;5020998;28;20684;-73
2022/07/10 05:00:18;;;;;;;;;;;19.90;61.70;;;;;;5021011;28;19929;-73
2022/07/10 05:02:46;;;;;;;;;;;19.90;61.70;;;;;;5018595;28;19929;-73
2022/07/10 05:05:13;;;;;;;;;;;19.90;61.90;;;;;;5020041;28;19936;-73
2022/07/10 05:07:39;;;;;;;;;;;19.90;61.80;;;;;;5019883;28;20365;-73
2022/07/10 05:10:06;;;;;;;;;;;19.80;61.70;;;;;;5022067;28;19935;-73
2022/07/10 05:12:33;;;;;;;;;;;19.80;61.70;;;;;;5021188;28;19934;-73
2022/07/10 05:15:00;;;;;;;;;;;19.80;61.70;;;;;;5021505;28;19929;-73
2022/07/10 05:17:28;;;;;;;;;;;19.80;61.70;;;;;;5019823;28;19933;-73
2022/07/10 05:19:56;;;;;;;;;;;19.80;61.50;;;;;;5016587;28;19937;-73
2022/07/10 05:22:23;;;;;;;;;;;19.80;61.50;;;;;;5012860;28;21074;-73
2022/07/10 05:24:49;;;;;;;;;;;19.80;61.70;;;;;;5012675;28;19933;-73
2022/07/10 05:27:17;;;;;;;;;;;19.80;61.70;;;;;;5022015;28;20380;-73
2022/07/10 05:29:44;;;;;;;;;;;19.80;61.50;;;;;;5018488;28;19935;-73
2022/07/10 05:32:11;;;;;;;;;;;19.80;61.60;;;;;;5018619;28;20456;-73
2022/07/10 05:34:37;;;;;;;;;;;19.80;61.40;;;;;;5018662;28;19930;-73
2022/07/10 05:37:06;;;;;;;;;;;19.80;61.20;;;;;;5020884;28;20304;-72
2022/07/10 05:39:33;;;;;;;;;;;19.70;61.30;;;;;;5024619;28;19941;-73
2022/07/10 05:42:00;;;;;;;;;;;19.80;61.10;;;;;;5030446;28;19932;-73
2022/07/10 05:44:26;;;;;;;;;;;19.80;61.10;;;;;;5020705;28;19928;-73
2022/07/10 05:46:53;;;;;;;;;;;19.70;61.20;;;;;;5022491;28;19936;-73
2022/07/10 05:49:20;;;;;;;;;;;19.80;60.90;;;;;;5025208;28;19933;-73
2022/07/10 05:51:46;;;;;;;;;;;19.70;60.90;;;;;;5024646;28;19933;-73
2022/07/10 05:54:14;;;;;;;;;;;19.80;60.90;;;;;;5025703;28;20051;-73
2022/07/10 05:56:41;;;;;;;;;;;19.80;60.90;;;;;;5026090;28;20392;-73
2022/07/10 05:59:07;;;;;;;;;;;19.80;60.80;;;;;;5026260;28;19936;-73
2022/07/10 06:01:34;;;;;;;;;;;19.70;60.60;;;;;;5026224;28;19940;-73
2022/07/10 06:04:01;;;;;;;;;;;19.80;60.60;;;;;;5025560;28;19925;-73
2022/07/10 06:06:27;;;;;;;;;;;19.70;60.50;;;;;;5023024;28;19929;-73
2022/07/10 06:08:55;;;;;;;;;;;19.70;60.40;;;;;;5026669;28;19933;-73
2022/07/10 06:11:22;;;;;;;;;;;19.80;60.70;;;;;;5025577;28;20059;-73
2022/07/10 06:13:49;;;;;;;;;;;19.80;60.40;;;;;;5024194;28;20642;-73
2022/07/10 06:16:16;;;;;;;;;;;19.80;60.60;;;;;;5020906;28;19937;-73
2022/07/10 06:18:42;;;;;;;;;;;19.80;60.40;;;;;;5022815;28;20039;-73
2022/07/10 06:21:09;;;;;;;;;;;19.80;60.40;;;;;;5027831;28;19933;-73
2022/07/10 06:23:35;;;;;;;;;;;19.80;60.20;;;;;;5025604;28;19933;-73
2022/07/10 06:26:02;;;;;;;;;;;19.80;60.10;;;;;;5025766;28;19925;-72
2022/07/10 06:28:30;;;;;;;;;;;19.80;60.10;;;;;;5026272;28;20259;-73
2022/07/10 06:30:56;;;;;;;;;;;19.80;60.10;;;;;;5025319;28;19936;-74
2022/07/10 06:33:23;;;;;;;;;;;19.80;59.70;;;;;;5021367;28;20378;-73
2022/07/10 06:35:50;;;;;;;;;;;19.80;59.70;;;;;;5026214;28;20381;-73
2022/07/10 06:38:16;;;;;;;;;;;19.90;59.90;;;;;;5023239;28;20375;-73
2022/07/10 06:40:43;;;;;;;;;;;19.90;60.00;;;;;;5025846;28;19936;-73
2022/07/10 06:43:10;;;;;;;;;;;19.90;59.70;;;;;;5024545;28;19929;-73
2022/07/10 06:45:38;;;;;;;;;;;19.90;59.80;;;;;;5017516;28;19947;-72
2022/07/10 06:48:04;;;;;;;;;;;19.90;59.80;;;;;;5022589;28;19929;-73
2022/07/10 06:50:32;;;;;;;;;;;19.90;59.70;;;;;;5018132;28;19929;-73
2022/07/10 06:52:58;;;;;;;;;;;19.90;59.70;;;;;;5021684;28;20325;-72
2022/07/10 06:55:26;;;;;;;;;;;19.90;59.70;;;;;;5025091;28;19956;-72
2022/07/10 06:57:52;;;;;;;;;;;19.90;59.80;;;;;;5022589;28;19929;-73
2022/07/10 07:00:19;;;;;;;;;;;19.90;59.50;;;;;;5021319;28;19935;-73
2022/07/10 07:02:47;;;;;;;;;;;19.90;59.50;;;;;;5022989;28;19936;-73
2022/07/10 07:05:13;;;;;;;;;;;19.90;59.30;;;;;;5021553;28;19929;-73
2022/07/10 07:07:40;;;;;;;;;;;19.90;59.40;;;;;;5023439;28;19933;-72
2022/07/10 07:10:07;;;;;;;;;;;19.90;59.40;;;;;;5021107;28;19980;-73
2022/07/10 07:12:34;;;;;;;;;;;19.90;59.20;;;;;;5024818;28;19933;-73
2022/07/10 07:15:00;;;;;;;;;;;20.00;59.30;;;;;;5020645;28;19937;-73
2022/07/10 07:17:33;;;;;;;;;;;19.90;59.30;;;;;;5012704;28;20020;-74
2022/07/10 07:25:30;;;;;;;;;;;19.90;59.30;;;;;;5017357;28;19976;-72
2022/07/10 07:27:56;;;;;;;;;;;19.90;59.30;;;;;;5024246;28;19925;-72
2022/07/10 07:30:23;;;;;;;;;;;19.90;59.30;;;;;;5021931;28;19933;-73
2022/07/10 07:32:49;;;;;;;;;;;19.90;59.10;;;;;;5024364;28;19933;-72
2022/07/10 07:35:17;;;;;;;;;;;19.90;58.90;;;;;;5025997;28;19929;-73
2022/07/10 07:37:44;;;;;;;;;;;19.90;59.00;;;;;;5017541;28;19936;-72
2022/07/10 07:40:13;;;;;;;;;;;19.90;59.10;;;;;;5021035;28;20054;-72
2022/07/10 07:42:40;;;;;;;;;;;20.00;59.00;;;;;;5022268;28;19933;-73
2022/07/10 07:45:07;;;;;;;;;;;20.00;59.00;;;;;;5019759;28;20709;-72
2022/07/10 07:47:43;;;;;;;;;;;19.90;58.90;;;;;;5019324;28;19999;-69
2022/07/10 07:50:10;;;;;;;;;;;20.00;58.80;;;;;;5021189;28;19976;-68
2022/07/10 07:52:38;;;;;;;;;;;20.00;58.90;;;;;;5023310;28;19936;-69
2022/07/10 07:55:05;;;;;;;;;;;20.00;58.60;;;;;;5025190;28;19933;-67
2022/07/10 07:57:31;;;;;;;;;;;20.00;58.50;;;;;;5020558;28;19933;-69
2022/07/10 07:59:58;;;;;;;;;;;20.00;58.40;;;;;;5017776;28;19933;-68
2022/07/10 08:02:24;;;;;;;;;;;20.00;58.40;;;;;;5022025;28;19948;-69
2022/07/10 08:04:51;;;;;;;;;;;20.10;58.20;;;;;;5024030;28;19936;-69
2022/07/10 08:07:17;;;;;;;;;;;20.00;58.10;;;;;;5022306;28;19936;-68
2022/07/10 08:09:45;;;;;;;;;;;20.00;57.90;;;;;;5024706;28;19929;-69
2022/07/10 08:12:12;;;;;;;;;;;20.10;57.70;;;;;;5021813;28;19933;-69
2022/07/10 08:14:38;;;;;;;;;;;20.10;57.60;;;;;;5023069;28;19935;-69
2022/07/10 08:17:05;;;;;;;;;;;20.10;57.50;;;;;;5023931;28;19943;-69
2022/07/10 08:19:32;;;;;;;;;;;20.10;57.20;;;;;;5025248;28;20321;-69
2022/07/10 08:21:58;;;;;;;;;;;20.10;56.90;;;;;;5022726;28;19929;-68
2022/07/10 08:24:25;;;;;;;;;;;20.10;57.00;;;;;;5027184;28;19937;-69
2022/07/10 08:26:52;;;;;;;;;;;20.20;57.10;;;;;;5025865;28;19936;-69
2022/07/10 08:29:19;;;;;;;;;;;20.20;56.80;;;;;;5024484;28;19929;-69
2022/07/10 08:31:46;;;;;;;;;;;20.20;56.90;;;;;;5019896;28;20380;-69
2022/07/10 08:34:12;;;;;;;;;;;20.30;56.60;;;;;;5023179;28;20373;-69
2022/07/10 08:36:39;;;;;;;;;;;20.20;56.50;;;;;;5024547;28;19936;-69
2022/07/10 08:39:05;;;;;;;;;;;20.20;56.20;;;;;;5024237;28;19960;-68
2022/07/10 08:41:32;;;;;;;;;;;20.30;56.20;;;;;;5024776;28;19936;-69
2022/07/10 08:44:00;;;;;;;;;;;20.30;56.10;;;;;;5022105;28;19930;-69
2022/07/10 08:46:27;;;;;;;;;;;20.30;56.10;;;;;;5021092;28;19936;-69
2022/07/10 08:48:54;;;;;;;;;;;20.30;55.90;;;;;;5023963;28;19929;-69
2022/07/10 08:51:25;;;;;;;;;;;20.30;56.00;;;;;;5022909;28;19933;-69
2022/07/10 08:53:52;;;;;;;;;;;20.30;55.70;;;;;;5023661;28;20024;-69
2022/07/10 08:56:18;;;;;;;;;;;20.30;55.60;;;;;;5023698;28;20946;-69
2022/07/10 08:58:45;;;;;;;;;;;20.40;55.60;;;;;;5019501;28;19929;-69
2022/07/10 09:01:13;;;;;;;;;;;20.40;55.50;;;;;;5023251;28;19998;-69
2022/07/10 09:03:39;;;;;;;;;;;20.40;55.40;;;;;;5026722;28;19929;-69
2022/07/10 09:06:07;;;;;;;;;;;20.40;55.20;;;;;;5023921;28;19929;-68
2022/07/10 09:08:34;;;;;;;;;;;20.40;55.00;;;;;;5022901;28;19936;-69
2022/07/10 09:11:13;;;;;;;;;;;20.40;55.00;;;;;;5026962;28;19960;-69
2022/07/10 09:13:49;;;;;;;;;;;20.40;54.90;;;;;;5024739;28;20403;-68
2022/07/10 09:16:22;;;;;;;;;;;20.50;54.70;;;;;;5023894;28;20431;-69
2022/07/10 09:18:49;;;;;;;;;;;20.50;54.50;;;;;;5029056;28;19964;-69
2022/07/10 09:21:16;;;;;;;;;;;20.50;54.20;;;;;;5023580;28;19933;-70
2022/07/10 09:23:43;;;;;;;;;;;20.50;54.20;;;;;;5027119;28;20404;-69
2022/07/10 09:26:09;;;;;;;;;;;20.50;54.10;;;;;;5024472;28;19943;-69
2022/07/10 09:28:36;;;;;;;;;;;20.60;54.00;;;;;;5025686;28;19929;-69
2022/07/10 09:31:02;;;;;;;;;;;20.60;53.50;;;;;;5026976;28;19945;-69
2022/07/10 09:33:31;;;;;;;;;;;20.60;53.80;;;;;;5027703;28;20015;-75
2022/07/10 09:36:08;;;;;;;;;;;20.60;53.70;;;;;;5022379;28;19940;-74
2022/07/10 09:38:49;;;;;;;;;;;20.70;53.80;;;;;;5025016;28;20545;-74
2022/07/10 09:41:17;;;;;;;;;;;20.70;53.40;;;;;;5024592;28;19959;-75
2022/07/10 09:43:44;;;;;;;;;;;20.70;53.30;;;;;;5025068;28;19933;-74
2022/07/10 09:46:11;;;;;;;;;;;20.70;52.80;;;;;;5025225;28;19988;-74
2022/07/10 09:48:39;;;;;;;;;;;20.80;52.40;;;;;;5026898;28;20324;-74
2022/07/10 09:51:08;;;;;;;;;;;20.80;52.50;;;;;;5018435;28;19959;-73
2022/07/10 09:53:36;;;;;;;;;;;20.90;52.50;;;;;;5019646;28;20452;-74
2022/07/10 09:56:04;;;;;;;;;;;20.90;52.10;;;;;;5025913;28;20336;-74
2022/07/10 09:58:34;;;;;;;;;;;20.90;52.00;;;;;;5020142;28;19952;-73
2022/07/10 10:01:01;;;;;;;;;;;20.90;52.90;;;;;;5024545;28;19952;-74
2022/07/10 10:03:28;;;;;;;;;;;20.90;52.50;;;;;;5026911;28;19999;-74
2022/07/10 10:05:56;;;;;;;;;;;21.00;52.50;;;;;;5024782;28;20448;-74
2022/07/10 10:08:25;;;;;;;;;;;21.00;53.70;;;;;;5025643;28;19936;-74
2022/07/10 10:10:52;;;;;;;;;;;21.00;53.00;;;;;;5024094;28;20392;-74
2022/07/10 10:13:20;;;;;;;;;;;21.00;51.60;;;;;;5025185;28;19936;-73
2022/07/10 10:15:48;;;;;;;;;;;21.10;52.60;;;;;;5027059;28;19936;-74
2022/07/10 10:18:16;;;;;;;;;;;21.10;53.00;;;;;;5023661;28;20625;-74
2022/07/10 10:20:43;;;;;;;;;;;21.20;52.00;;;;;;5026484;28;20708;-73
2022/07/10 10:23:12;;;;;;;;;;;21.20;51.50;;;;;;5024892;28;20008;-73
2022/07/10 10:25:39;;;;;;;;;;;21.30;51.60;;;;;;5027588;28;19968;-73
2022/07/10 10:28:06;;;;;;;;;;;21.30;51.00;;;;;;5033654;28;19929;-73
2022/07/10 10:30:33;;;;;;;;;;;21.30;50.60;;;;;;5024273;28;19968;-74
2022/07/10 10:33:00;;;;;;;;;;;21.40;50.90;;;;;;5025643;28;19936;-73
2022/07/10 10:35:42;;;;;;;;;;;21.40;51.00;;;;;;5026002;28;19933;-73
2022/07/10 10:38:10;;;;;;;;;;;21.40;51.30;;;;;;5015650;28;19929;-74
2022/07/10 10:40:37;;;;;;;;;;;21.50;50.70;;;;;;5018386;28;19934;-74
2022/07/10 10:43:17;;;;;;;;;;;21.50;49.50;;;;;;5018809;28;20400;-74
2022/07/10 10:45:43;;;;;;;;;;;21.60;49.90;;;;;;5017683;28;19929;-74
2022/07/10 10:48:10;;;;;;;;;;;21.60;49.60;;;;;;5023087;28;19941;-73
2022/07/10 10:50:37;;;;;;;;;;;21.70;49.40;;;;;;5025350;28;19933;-73
2022/07/10 10:53:04;;;;;;;;;;;21.70;50.20;;;;;;5027324;28;20705;-73
2022/07/10 10:55:32;;;;;;;;;;;21.80;49.40;;;;;;5025415;28;19929;-74
2022/07/10 10:58:12;;;;;;;;;;;21.80;49.70;;;;;;5023534;28;19933;-73
2022/07/10 11:00:40;;;;;;;;;;;21.90;50.40;;;;;;5024655;28;19933;-73
2022/07/10 11:03:17;;;;;;;;;;;21.90;49.80;;;;;;5022632;28;19984;-74
2022/07/10 11:05:44;;;;;;;;;;;22.00;50.20;;;;;;5024513;28;20466;-73
2022/07/10 11:08:11;;;;;;;;;;;22.00;49.70;;;;;;5024975;28;19934;-73
2022/07/10 11:10:40;;;;;;;;;;;22.10;50.40;;;;;;5025269;28;19933;-74
2022/07/10 11:13:08;;;;;;;;;;;22.10;49.90;;;;;;5025593;28;19955;-74
2022/07/10 11:15:36;;;;;;;;;;;22.20;49.00;;;;;;5022185;28;20355;-74
2022/07/10 11:18:06;;;;;;;;;;;22.20;49.20;;;;;;5027950;28;20646;-73
2022/07/10 11:20:33;;;;;;;;;;;22.30;49.80;;;;;;5021121;28;19941;-74
2022/07/10 11:23:09;;;;;;;;;;;22.30;49.50;;;;;;5021646;28;20048;-73
2022/07/10 11:25:44;;;;;;;;;;;22.40;49.00;;;;;;5023944;28;19929;-75
2022/07/10 11:28:11;;;;;;;;;;;22.40;48.40;;;;;;5021499;28;19936;-73
2022/07/10 11:30:44;;;;;;;;;;;22.50;48.00;;;;;;5017473;28;19935;-74
2022/07/10 11:33:11;;;;;;;;;;;22.50;46.90;;;;;;5024601;28;20480;-73
2022/07/10 11:35:38;;;;;;;;;;;22.50;46.40;;;;;;5028658;28;19933;-73
2022/07/10 11:38:05;;;;;;;;;;;22.60;47.70;;;;;;5025503;28;19933;-74
2022/07/10 11:40:36;;;;;;;;;;;22.70;48.10;;;;;;5022964;28;20285;-74
2022/07/10 11:43:06;;;;;;;;;;;22.70;48.10;;;;;;5024306;28;20016;-73
2022/07/10 11:45:36;;;;;;;;;;;22.70;47.80;;;;;;5025188;28;20031;-73
2022/07/10 11:48:03;;;;;;;;;;;22.80;47.20;;;;;;5023084;28;19968;-74
2022/07/10 11:50:35;;;;;;;;;;;22.90;47.70;;;;;;5022150;28;19936;-72
2022/07/10 11:53:01;;;;;;;;;;;22.90;48.00;;;;;;5021099;28;20023;-74
2022/07/10 11:55:29;;;;;;;;;;;22.90;47.60;;;;;;5022290;28;20337;-74
2022/07/10 11:57:55;;;;;;;;;;;22.90;47.90;;;;;;5020252;28;19944;-74
2022/07/10 12:00:24;;;;;;;;;;;23.00;46.70;;;;;;5018215;28;19937;-73
2022/07/10 12:02:50;;;;;;;;;;;23.00;47.00;;;;;;5019533;28;20056;-73
2022/07/10 12:05:30;;;;;;;;;;;23.10;47.30;;;;;;5020605;28;19929;-74
2022/07/10 12:07:56;;;;;;;;;;;23.10;47.00;;;;;;5018075;28;20680;-74
2022/07/10 12:10:26;;;;;;;;;;;23.10;46.00;;;;;;5021951;28;19928;-74
2022/07/10 12:12:52;;;;;;;;;;;23.20;46.40;;;;;;5023234;28;19936;-74
2022/07/10 12:15:32;;;;;;;;;;;23.30;45.00;;;;;;5020192;28;19933;-74
2022/07/10 12:17:59;;;;;;;;;;;23.30;45.50;;;;;;5024406;28;19929;-74
2022/07/10 12:20:25;;;;;;;;;;;23.40;45.50;;;;;;5023429;28;20460;-73
2022/07/10 12:22:53;;;;;;;;;;;23.40;45.60;;;;;;5024809;28;19945;-74
2022/07/10 12:25:20;;;;;;;;;;;23.50;46.00;;;;;;5025419;28;20687;-74
2022/07/10 12:27:47;;;;;;;;;;;23.50;45.40;;;;;;5024696;28;19929;-74
2022/07/10 12:30:13;;;;;;;;;;;23.60;45.80;;;;;;5026720;28;19929;-73
2022/07/10 12:32:41;;;;;;;;;;;23.60;46.00;;;;;;5017354;28;19930;-73
2022/07/10 12:35:14;;;;;;;;;;;23.70;45.70;;;;;;5021709;28;19929;-73
2022/07/10 12:37:48;;;;;;;;;;;23.70;45.50;;;;;;5019916;28;20470;-74
2022/07/10 12:40:29;;;;;;;;;;;23.80;45.00;;;;;;5016642;28;20023;-77
2022/07/10 12:43:01;;;;;;;;;;;23.80;45.40;;;;;;5014539;28;19929;-76
2022/07/10 12:45:28;;;;;;;;;;;23.80;44.50;;;;;;5016105;28;19929;-76
2022/07/10 12:47:56;;;;;;;;;;;23.90;43.10;;;;;;5026328;28;19929;-75
2022/07/10 12:50:25;;;;;;;;;;;24.00;44.40;;;;;;5015582;28;19956;-76
2022/07/10 12:53:06;;;;;;;;;;;24.00;44.80;;;;;;5023629;28;19960;-75
2022/07/10 12:55:37;;;;;;;;;;;24.10;42.30;;;;;;5023471;28;19941;-76
2022/07/10 12:58:08;;;;;;;;;;;24.10;44.30;;;;;;5023525;28;20047;-75
2022/07/10 13:00:36;;;;;;;;;;;24.20;44.50;;;;;;5022690;28;19933;-75
2022/07/10 13:03:05;;;;;;;;;;;24.20;44.40;;;;;;5023314;28;19929;-75
2022/07/10 13:05:32;;;;;;;;;;;24.20;44.50;;;;;;5027076;28;19940;-75
2022/07/10 13:08:06;;;;;;;;;;;24.30;45.20;;;;;;5023206;28;19929;-74
2022/07/10 13:10:33;;;;;;;;;;;24.30;44.60;;;;;;5022649;28;20309;-75
2022/07/10 13:12:59;;;;;;;;;;;24.40;44.00;;;;;;5023447;28;21472;-75
2022/07/10 13:15:26;;;;;;;;;;;24.30;43.60;;;;;;5022054;28;20389;-76
2022/07/10 13:17:53;;;;;;;;;;;24.40;43.30;;;;;;5017916;28;20243;-76
2022/07/10 13:20:20;;;;;;;;;;;24.40;44.00;;;;;;5022544;28;19937;-76
2022/07/10 13:22:47;;;;;;;;;;;24.50;43.90;;;;;;5024947;28;20534;-75
2022/07/10 13:25:13;;;;;;;;;;;24.50;44.10;;;;;;5024015;28;20629;-76
2022/07/10 13:27:41;;;;;;;;;;;24.50;44.20;;;;;;5020043;28;19933;-75
2022/07/10 13:30:09;;;;;;;;;;;24.50;44.00;;;;;;5028077;28;20324;-75
2022/07/10 13:32:35;;;;;;;;;;;24.60;44.00;;;;;;5020856;28;19929;-75
2022/07/10 13:35:02;;;;;;;;;;;24.60;44.30;;;;;;5023215;28;20020;-75
2022/07/10 13:37:29;;;;;;;;;;;24.70;43.80;;;;;;5021971;28;19929;-74
2022/07/10 13:39:56;;;;;;;;;;;24.70;43.90;;;;;;5022420;28;19929;-75
2022/07/10 13:42:23;;;;;;;;;;;24.70;43.90;;;;;;5022468;28;19942;-76
2022/07/10 13:44:49;;;;;;;;;;;24.80;42.20;;;;;;5020963;28;19960;-75
2022/07/10 13:47:16;;;;;;;;;;;24.90;43.10;;;;;;5021364;28;20642;-76
2022/07/10 13:49:42;;;;;;;;;;;24.90;43.10;;;;;;5022885;28;19936;-74
2022/07/10 13:52:09;;;;;;;;;;;24.90;42.70;;;;;;5023571;28;19936;-75
2022/07/10 13:54:36;;;;;;;;;;;24.90;42.90;;;;;;5023141;28;20558;-76
2022/07/10 13:57:04;;;;;;;;;;;25.00;42.10;;;;;;5021726;28;19940;-76
2022/07/10 13:59:30;;;;;;;;;;;25.00;41.70;;;;;;5014363;28;20412;-76
2022/07/10 14:01:57;;;;;;;;;;;25.10;42.70;;;;;;5019548;28;20428;-77
2022/07/10 14:04:24;;;;;;;;;;;25.10;43.00;;;;;;5014590;28;19940;-74
2022/07/10 14:06:50;;;;;;;;;;;25.20;42.60;;;;;;5016996;28;19936;-76
2022/07/10 14:09:18;;;;;;;;;;;25.30;42.80;;;;;;5013533;28;19936;-75
2022/07/10 14:11:46;;;;;;;;;;;25.30;41.80;;;;;;5013131;28;19956;-75
2022/07/10 14:14:13;;;;;;;;;;;25.40;42.10;;;;;;5018482;28;19941;-76
2022/07/10 14:16:39;;;;;;;;;;;25.40;42.70;;;;;;5024394;28;19982;-75
2022/07/10 14:19:06;;;;;;;;;;;25.50;42.90;;;;;;5026704;28;19937;-75
2022/07/10 14:21:32;;;;;;;;;;;25.60;43.50;;;;;;5022789;28;19969;-75
2022/07/10 14:23:59;;;;;;;;;;;25.60;42.50;;;;;;5023542;28;19992;-76
2022/07/10 14:26:25;;;;;;;;;;;25.60;43.10;;;;;;5016479;28;20311;-75
2022/07/10 14:28:54;;;;;;;;;;;25.60;42.30;;;;;;5025566;28;19933;-76